createdAt,value
2023-05-14T00:00:00.641Z,1019.9
2023-05-14T00:01:08.637Z,1019.85
2023-05-14T00:02:01.084Z,1019.81
2023-05-14T00:03:01.298Z,1019.78
2023-05-14T00:04:01.169Z,1019.81
2023-05-14T00:05:01.885Z,1019.78
2023-05-14T00:06:11.849Z,1019.77
2023-05-14T00:07:01.935Z,1019.78
2023-05-14T00:08:01.491Z,1019.72
2023-05-14T00:09:01.129Z,1019.76
2023-05-14T00:10:01.145Z,1019.79
2023-05-14T00:11:14.809Z,1019.77
2023-05-14T00:12:01.115Z,1019.72
2023-05-14T00:13:01.129Z,1019.72
2023-05-14T00:14:01.027Z,1019.72
2023-05-14T00:15:01.462Z,1019.68
2023-05-14T00:16:01.202Z,1019.68
2023-05-14T00:17:01.050Z,1019.67
2023-05-14T00:18:01.096Z,1019.64
2023-05-14T00:19:01.082Z,1019.63
2023-05-14T00:20:01.765Z,1019.63
2023-05-14T00:21:01.084Z,1019.62
2023-05-14T00:22:01.424Z,1019.62
2023-05-14T00:23:01.287Z,1019.63
2023-05-14T00:24:01.929Z,1019.58
2023-05-14T00:25:02.197Z,1019.59
2023-05-14T00:26:01.548Z,1019.63
2023-05-14T00:27:01.950Z,1019.62
2023-05-14T00:28:01.228Z,1019.64
2023-05-14T00:29:00.655Z,1019.6
2023-05-14T00:30:00.637Z,1019.61
2023-05-14T00:31:00.708Z,1019.65
2023-05-14T00:32:00.334Z,1019.61
2023-05-14T00:33:00.003Z,1019.63
2023-05-14T00:33:59.628Z,1019.6
2023-05-14T00:35:01.747Z,1019.62
2023-05-14T00:36:01.281Z,1019.6
2023-05-14T00:37:01.084Z,1019.6
2023-05-14T00:38:01.099Z,1019.58
2023-05-14T00:39:01.324Z,1019.59
2023-05-14T00:40:01.506Z,1019.62
2023-05-14T00:41:04.074Z,1019.57
2023-05-14T00:42:01.776Z,1019.56
2023-05-14T00:43:01.136Z,1019.57
2023-05-14T00:44:01.145Z,1019.55
2023-05-14T00:45:01.201Z,1019.5
2023-05-14T00:46:01.038Z,1019.53
2023-05-14T00:47:01.129Z,1019.56
2023-05-14T00:48:01.177Z,1019.5
2023-05-14T00:49:01.866Z,1019.5
2023-05-14T00:50:01.060Z,1019.52
2023-05-14T00:51:01.083Z,1019.53
2023-05-14T00:52:00.769Z,1019.52
2023-05-14T00:53:00.365Z,1019.54
2023-05-14T00:53:59.959Z,1019.52
2023-05-14T00:54:59.522Z,1019.55
2023-05-14T00:56:01.124Z,1019.55
2023-05-14T00:57:01.227Z,1019.51
2023-05-14T00:58:01.222Z,1019.53
2023-05-14T00:59:01.134Z,1019.51
2023-05-14T01:00:01.133Z,1019.52
2023-05-14T01:01:01.744Z,1019.49
2023-05-14T01:02:01.041Z,1019.46
2023-05-14T01:03:01.188Z,1019.46
2023-05-14T01:04:01.156Z,1019.51
2023-05-14T01:05:01.064Z,1019.47
2023-05-14T01:06:01.171Z,1019.47
2023-05-14T01:07:03.927Z,1019.44
2023-05-14T01:08:01.995Z,1019.46
2023-05-14T01:09:00.617Z,1019.46
2023-05-14T01:09:59.863Z,1019.47
2023-05-14T01:10:59.549Z,1019.44
2023-05-14T01:12:01.202Z,1019.4
2023-05-14T01:13:02.547Z,1019.46
2023-05-14T01:14:01.525Z,1019.45
2023-05-14T01:15:01.544Z,1019.41
2023-05-14T01:16:01.593Z,1019.43
2023-05-14T01:17:01.951Z,1019.38
2023-05-14T01:18:01.435Z,1019.41
2023-05-14T01:19:01.369Z,1019.41
2023-05-14T01:20:01.071Z,1019.45
2023-05-14T01:21:01.466Z,1019.36
2023-05-14T01:22:02.336Z,1019.39
2023-05-14T01:23:01.757Z,1019.36
2023-05-14T01:24:02.018Z,1019.34
2023-05-14T01:25:01.205Z,1019.3
2023-05-14T01:26:01.102Z,1019.28
2023-05-14T01:27:01.667Z,1019.33
2023-05-14T01:28:01.117Z,1019.32
2023-05-14T01:29:01.106Z,1019.38
2023-05-14T01:30:01.163Z,1019.37
2023-05-14T01:31:01.129Z,1019.38
2023-05-14T01:32:05.643Z,1019.35
2023-05-14T01:33:01.159Z,1019.33
2023-05-14T01:34:01.253Z,1019.32
2023-05-14T01:35:06.773Z,1019.36
2023-05-14T01:36:01.858Z,1019.31
2023-05-14T01:37:09.442Z,1019.33
2023-05-14T01:38:01.744Z,1019.36
2023-05-14T01:39:01.067Z,1019.33
2023-05-14T01:40:01.810Z,1019.36
2023-05-14T01:41:01.826Z,1019.34
2023-05-14T01:42:11.405Z,1019.31
2023-05-14T01:43:01.589Z,1019.32
2023-05-14T01:44:02.390Z,1019.31
2023-05-14T01:45:01.304Z,1019.29
2023-05-14T01:46:01.174Z,1019.31
2023-05-14T01:47:16.068Z,1019.25
2023-05-14T01:48:01.556Z,1019.24
2023-05-14T01:49:01.149Z,1019.25
2023-05-14T01:50:01.025Z,1019.18
2023-05-14T01:51:01.056Z,1019.19
2023-05-14T01:52:01.050Z,1019.2
2023-05-14T01:53:01.401Z,1019.23
2023-05-14T01:54:01.117Z,1019.25
2023-05-14T01:55:01.492Z,1019.19
2023-05-14T01:56:01.218Z,1019.21
2023-05-14T01:57:01.072Z,1019.19
2023-05-14T01:58:01.098Z,1019.21
2023-05-14T01:59:01.181Z,1019.26
2023-05-14T02:00:01.111Z,1019.26
2023-05-14T02:01:01.313Z,1019.25
2023-05-14T02:02:01.261Z,1019.28
2023-05-14T02:03:01.318Z,1019.24
2023-05-14T02:04:02.158Z,1019.2
2023-05-14T02:05:01.024Z,1019.31
2023-05-14T02:06:01.036Z,1019.28
2023-05-14T02:07:01.102Z,1019.28
2023-05-14T02:08:01.076Z,1019.24
2023-05-14T02:09:01.835Z,1019.28
2023-05-14T02:10:01.910Z,1019.25
2023-05-14T02:11:02.200Z,1019.23
2023-05-14T02:12:00.792Z,1019.22
2023-05-14T02:13:00.526Z,1019.22
2023-05-14T02:14:00.794Z,1019.24
2023-05-14T02:15:00.556Z,1019.24
2023-05-14T02:16:00.250Z,1019.22
2023-05-14T02:17:00.246Z,1019.23
2023-05-14T02:17:59.894Z,1019.25
2023-05-14T02:18:59.580Z,1019.23
2023-05-14T02:20:02.350Z,1019.24
2023-05-14T02:21:01.255Z,1019.21
2023-05-14T02:22:02.538Z,1019.2
2023-05-14T02:23:01.077Z,1019.17
2023-05-14T02:24:01.063Z,1019.19
2023-05-14T02:25:01.072Z,1019.18
2023-05-14T02:26:01.318Z,1019.2
2023-05-14T02:27:01.201Z,1019.15
2023-05-14T02:28:01.101Z,1019.16
2023-05-14T02:29:01.353Z,1019.13
2023-05-14T02:30:02.295Z,1019.11
2023-05-14T02:31:02.071Z,1019.11
2023-05-14T02:32:01.128Z,1019.08
2023-05-14T02:33:01.170Z,1019.13
2023-05-14T02:34:01.109Z,1019.07
2023-05-14T02:35:01.507Z,1019.05
2023-05-14T02:36:01.029Z,1019.06
2023-05-14T02:37:01.060Z,1019.04
2023-05-14T02:38:01.033Z,1019.04
2023-05-14T02:39:01.120Z,1019.02
2023-05-14T02:40:01.064Z,1019.04
2023-05-14T02:41:01.393Z,1019.05
2023-05-14T02:42:01.028Z,1019.08
2023-05-14T02:43:01.072Z,1019.07
2023-05-14T02:44:01.090Z,1019.07
2023-05-14T02:45:00.766Z,1019.05
2023-05-14T02:46:00.474Z,1019.04
2023-05-14T02:47:00.247Z,1019.07
2023-05-14T02:48:00.002Z,1019.12
2023-05-14T02:48:59.896Z,1019.16
2023-05-14T02:49:59.687Z,1019.1
2023-05-14T02:51:01.326Z,1019.07
2023-05-14T02:52:01.129Z,1019.14
2023-05-14T02:53:02.156Z,1019.18
2023-05-14T02:54:00.497Z,1019.13
2023-05-14T02:55:00.487Z,1019.14
2023-05-14T02:56:00.152Z,1019.16
2023-05-14T02:56:59.811Z,1019.09
2023-05-14T02:58:01.842Z,1019.15
2023-05-14T02:59:01.486Z,1019.09
2023-05-14T03:00:01.494Z,1019.13
2023-05-14T03:01:01.170Z,1019.12
2023-05-14T03:02:02.066Z,1019.16
2023-05-14T03:03:01.181Z,1019.14
2023-05-14T03:04:01.224Z,1019.08
2023-05-14T03:05:01.117Z,1019.15
2023-05-14T03:06:01.132Z,1019.15
2023-05-14T03:07:01.083Z,1019.11
2023-05-14T03:08:01.037Z,1019.11
2023-05-14T03:09:01.371Z,1019.1
2023-05-14T03:10:02.096Z,1019.08
2023-05-14T03:11:01.012Z,1019.12
2023-05-14T03:12:01.031Z,1019.1
2023-05-14T03:13:03.871Z,1019.03
2023-05-14T03:14:01.088Z,1019.16
2023-05-14T03:15:01.101Z,1019.11
2023-05-14T03:16:01.137Z,1019.11
2023-05-14T03:17:01.845Z,1019.14
2023-05-14T03:18:06.420Z,1019.1
2023-05-14T03:19:01.146Z,1019.15
2023-05-14T03:20:01.125Z,1019.13
2023-05-14T03:21:01.114Z,1019.14
2023-05-14T03:22:00.849Z,1019.12
2023-05-14T03:23:09.605Z,1019.12
2023-05-14T03:24:03.113Z,1019.13
2023-05-14T03:25:01.233Z,1019.12
2023-05-14T03:26:01.212Z,1019.09
2023-05-14T03:27:01.416Z,1019.09
2023-05-14T03:28:12.555Z,1019.08
2023-05-14T03:29:01.151Z,1019.12
2023-05-14T03:30:01.079Z,1019.11
2023-05-14T03:31:01.274Z,1019.05
2023-05-14T03:32:01.098Z,1019.13
2023-05-14T03:33:14.775Z,1019.09
2023-05-14T03:34:01.230Z,1019.06
2023-05-14T03:35:01.509Z,1019.01
2023-05-14T03:36:01.513Z,1019.05
2023-05-14T03:37:01.109Z,1019.04
2023-05-14T03:38:01.022Z,1019.01
2023-05-14T03:39:01.026Z,1018.99
2023-05-14T03:40:01.032Z,1019.05
2023-05-14T03:41:01.041Z,1019.03
2023-05-14T03:42:01.791Z,1019.07
2023-05-14T03:43:01.099Z,1019.03
2023-05-14T03:44:01.528Z,1019.02
2023-05-14T03:45:01.385Z,1019.04
2023-05-14T03:46:02.143Z,1019.05
2023-05-14T03:47:01.762Z,1019.03
2023-05-14T03:48:01.859Z,1019.02
2023-05-14T03:49:01.670Z,1019.04
2023-05-14T03:50:01.663Z,1019.02
2023-05-14T03:51:01.297Z,1019.03
2023-05-14T03:52:01.100Z,1019.03
2023-05-14T03:53:01.154Z,1019.01
2023-05-14T03:54:01.437Z,1019.04
2023-05-14T03:55:01.704Z,1019
2023-05-14T03:56:01.045Z,1019.04
2023-05-14T03:57:00.999Z,1019
2023-05-14T03:58:01.058Z,1018.96
2023-05-14T03:59:01.099Z,1019.02
2023-05-14T04:00:01.137Z,1019.02
2023-05-14T04:01:01.887Z,1018.99
2023-05-14T04:02:02.061Z,1019.01
2023-05-14T04:03:01.177Z,1018.98
2023-05-14T04:04:00.799Z,1018.93
2023-05-14T04:05:01.109Z,1018.97
2023-05-14T04:06:01.114Z,1018.92
2023-05-14T04:07:01.109Z,1018.9
2023-05-14T04:08:01.134Z,1018.89
2023-05-14T04:09:01.513Z,1018.88
2023-05-14T04:10:04.179Z,1018.87
2023-05-14T04:11:01.299Z,1018.88
2023-05-14T04:12:01.305Z,1018.91
2023-05-14T04:13:01.314Z,1018.91
2023-05-14T04:14:01.058Z,1018.9
2023-05-14T04:15:01.005Z,1018.91
2023-05-14T04:16:01.095Z,1018.93
2023-05-14T04:17:01.783Z,1018.86
2023-05-14T04:18:01.152Z,1018.9
2023-05-14T04:19:01.170Z,1018.9
2023-05-14T04:20:01.095Z,1018.86
2023-05-14T04:21:00.768Z,1018.88
2023-05-14T04:22:00.449Z,1018.91
2023-05-14T04:23:00.238Z,1018.93
2023-05-14T04:23:59.886Z,1018.89
2023-05-14T04:24:59.590Z,1018.91
2023-05-14T04:26:01.701Z,1018.91
2023-05-14T04:27:01.132Z,1018.91
2023-05-14T04:28:01.045Z,1018.89
2023-05-14T04:29:00.722Z,1018.91
2023-05-14T04:30:00.427Z,1018.88
2023-05-14T04:31:00.166Z,1018.88
2023-05-14T04:32:00.158Z,1018.9
2023-05-14T04:33:00.245Z,1018.9
2023-05-14T04:33:59.780Z,1018.92
2023-05-14T04:35:01.386Z,1018.91
2023-05-14T04:36:02.439Z,1018.94
2023-05-14T04:37:01.012Z,1018.93
2023-05-14T04:38:01.103Z,1018.94
2023-05-14T04:39:01.507Z,1018.88
2023-05-14T04:40:01.119Z,1018.93
2023-05-14T04:41:01.522Z,1018.93
2023-05-14T04:42:02.095Z,1018.95
2023-05-14T04:43:01.153Z,1018.87
2023-05-14T04:44:00.827Z,1018.9
2023-05-14T04:45:00.484Z,1018.91
2023-05-14T04:46:00.268Z,1018.94
2023-05-14T04:46:59.928Z,1018.93
2023-05-14T04:47:59.893Z,1018.92
2023-05-14T04:49:00.148Z,1018.89
2023-05-14T04:49:59.894Z,1018.88
2023-05-14T04:51:14.098Z,1018.87
2023-05-14T04:52:01.082Z,1018.85
2023-05-14T04:53:00.770Z,1018.87
2023-05-14T04:54:00.581Z,1018.82
2023-05-14T04:55:00.414Z,1018.86
2023-05-14T04:56:00.175Z,1018.87
2023-05-14T04:57:00.424Z,1018.88
2023-05-14T04:58:00.208Z,1018.89
2023-05-14T04:59:01.786Z,1018.94
2023-05-14T05:00:02.315Z,1018.95
2023-05-14T05:01:02.475Z,1018.89
2023-05-14T05:02:01.214Z,1018.94
2023-05-14T05:03:02.063Z,1018.93
2023-05-14T05:04:04.661Z,1018.93
2023-05-14T05:05:01.384Z,1018.91
2023-05-14T05:06:01.215Z,1018.93
2023-05-14T05:07:02.452Z,1018.86
2023-05-14T05:08:01.097Z,1018.9
2023-05-14T05:09:08.453Z,1018.87
2023-05-14T05:10:00.842Z,1018.91
2023-05-14T05:11:01.020Z,1018.92
2023-05-14T05:12:01.026Z,1018.93
2023-05-14T05:13:02.067Z,1018.96
2023-05-14T05:14:10.778Z,1018.91
2023-05-14T05:15:01.746Z,1018.91
2023-05-14T05:16:01.985Z,1018.92
2023-05-14T05:17:00.861Z,1018.89
2023-05-14T05:18:01.245Z,1018.92
2023-05-14T05:19:14.302Z,1018.87
2023-05-14T05:20:01.991Z,1018.86
2023-05-14T05:21:02.092Z,1018.87
2023-05-14T05:22:02.449Z,1018.86
2023-05-14T05:23:01.103Z,1018.86
2023-05-14T05:24:16.523Z,1018.83
2023-05-14T05:25:01.863Z,1018.81
2023-05-14T05:26:01.016Z,1018.8
2023-05-14T05:27:02.650Z,1018.82
2023-05-14T05:28:01.989Z,1018.8
2023-05-14T05:29:01.395Z,1018.78
2023-05-14T05:30:01.127Z,1018.84
2023-05-14T05:31:02.018Z,1018.81
2023-05-14T05:32:01.092Z,1018.78
2023-05-14T05:33:01.115Z,1018.76
2023-05-14T05:34:01.250Z,1018.81
2023-05-14T05:35:00.855Z,1018.77
2023-05-14T05:36:01.466Z,1018.78
2023-05-14T05:37:01.055Z,1018.74
2023-05-14T05:38:01.762Z,1018.73
2023-05-14T05:39:00.981Z,1018.68
2023-05-14T05:40:00.991Z,1018.72
2023-05-14T05:41:00.999Z,1018.67
2023-05-14T05:42:00.980Z,1018.65
2023-05-14T05:43:01.660Z,1018.64
2023-05-14T05:44:00.953Z,1018.65
2023-05-14T05:45:01.336Z,1018.65
2023-05-14T05:46:01.156Z,1018.65
2023-05-14T05:47:01.140Z,1018.6
2023-05-14T05:48:02.884Z,1018.64
2023-05-14T05:49:01.882Z,1018.59
2023-05-14T05:50:00.715Z,1018.61
2023-05-14T05:51:00.436Z,1018.64
2023-05-14T05:52:00.131Z,1018.62
2023-05-14T05:52:59.722Z,1018.63
2023-05-14T05:54:01.380Z,1018.6
2023-05-14T05:55:01.021Z,1018.57
2023-05-14T05:56:01.026Z,1018.61
2023-05-14T05:57:01.017Z,1018.57
2023-05-14T05:58:01.172Z,1018.6
2023-05-14T05:59:01.390Z,1018.57
2023-05-14T06:00:01.815Z,1018.6
2023-05-14T06:01:01.102Z,1018.61
2023-05-14T06:02:01.083Z,1018.57
2023-05-14T06:03:01.115Z,1018.61
2023-05-14T06:04:01.090Z,1018.66
2023-05-14T06:05:01.428Z,1018.65
2023-05-14T06:06:02.484Z,1018.64
2023-05-14T06:07:01.038Z,1018.69
2023-05-14T06:08:01.287Z,1018.66
2023-05-14T06:09:00.986Z,1018.64
2023-05-14T06:10:00.660Z,1018.69
2023-05-14T06:11:00.223Z,1018.69
2023-05-14T06:11:59.912Z,1018.67
2023-05-14T06:12:59.651Z,1018.65
2023-05-14T06:14:01.694Z,1018.62
2023-05-14T06:15:01.335Z,1018.63
2023-05-14T06:16:04.034Z,1018.61
2023-05-14T06:17:01.065Z,1018.68
2023-05-14T06:18:01.499Z,1018.68
2023-05-14T06:19:01.886Z,1018.72
2023-05-14T06:20:01.216Z,1018.67
2023-05-14T06:21:01.041Z,1018.62
2023-05-14T06:22:01.054Z,1018.66
2023-05-14T06:23:01.086Z,1018.63
2023-05-14T06:24:01.286Z,1018.64
2023-05-14T06:25:01.072Z,1018.65
2023-05-14T06:26:01.122Z,1018.59
2023-05-14T06:27:01.268Z,1018.6
2023-05-14T06:28:01.732Z,1018.63
2023-05-14T06:29:01.521Z,1018.65
2023-05-14T06:30:00.588Z,1018.63
2023-05-14T06:31:00.270Z,1018.63
2023-05-14T06:31:59.928Z,1018.63
2023-05-14T06:32:59.591Z,1018.59
2023-05-14T06:34:01.341Z,1018.6
2023-05-14T06:35:01.544Z,1018.61
2023-05-14T06:36:02.059Z,1018.56
2023-05-14T06:37:01.311Z,1018.6
2023-05-14T06:38:02.382Z,1018.57
2023-05-14T06:39:02.087Z,1018.63
2023-05-14T06:40:01.964Z,1018.62
2023-05-14T06:41:01.457Z,1018.62
2023-05-14T06:42:02.062Z,1018.61
2023-05-14T06:43:02.123Z,1018.62
2023-05-14T06:44:01.074Z,1018.61
2023-05-14T06:45:01.117Z,1018.55
2023-05-14T06:46:01.100Z,1018.57
2023-05-14T06:47:01.196Z,1018.61
2023-05-14T06:48:01.931Z,1018.55
2023-05-14T06:49:01.987Z,1018.58
2023-05-14T06:50:01.014Z,1018.55
2023-05-14T06:51:01.265Z,1018.58
2023-05-14T06:52:02.359Z,1018.5
2023-05-14T06:53:02.117Z,1018.61
2023-05-14T06:54:01.045Z,1018.56
2023-05-14T06:55:03.845Z,1018.58
2023-05-14T06:56:01.073Z,1018.51
2023-05-14T06:57:01.095Z,1018.54
2023-05-14T06:58:01.204Z,1018.5
2023-05-14T06:59:01.866Z,1018.51
2023-05-14T07:00:06.840Z,1018.5
2023-05-14T07:01:01.041Z,1018.47
2023-05-14T07:02:01.290Z,1018.44
2023-05-14T07:03:01.180Z,1018.48
2023-05-14T07:04:01.127Z,1018.47
2023-05-14T07:05:09.470Z,1018.4
2023-05-14T07:06:01.044Z,1018.42
2023-05-14T07:07:01.021Z,1018.36
2023-05-14T07:08:01.042Z,1018.38
2023-05-14T07:09:01.008Z,1018.36
2023-05-14T07:10:10.209Z,1018.34
2023-05-14T07:11:01.214Z,1018.36
2023-05-14T07:12:01.307Z,1018.38
2023-05-14T07:13:01.447Z,1018.37
2023-05-14T07:14:01.926Z,1018.34
2023-05-14T07:15:12.318Z,1018.36
2023-05-14T07:16:00.619Z,1018.31
2023-05-14T07:17:00.434Z,1018.35
2023-05-14T07:18:00.249Z,1018.33
2023-05-14T07:19:00.031Z,1018.31
2023-05-14T07:20:13.854Z,1018.33
2023-05-14T07:21:02.177Z,1018.3
2023-05-14T07:22:01.165Z,1018.31
2023-05-14T07:23:01.189Z,1018.28
2023-05-14T07:24:01.247Z,1018.31
2023-05-14T07:25:16.942Z,1018.26
2023-05-14T07:26:01.069Z,1018.24
2023-05-14T07:27:01.061Z,1018.24
2023-05-14T07:28:01.565Z,1018.24
2023-05-14T07:29:01.065Z,1018.18
2023-05-14T07:30:00.765Z,1018.22
2023-05-14T07:31:00.666Z,1018.13
2023-05-14T07:32:00.360Z,1018.19
2023-05-14T07:32:59.998Z,1018.18
2023-05-14T07:33:59.677Z,1018.16
2023-05-14T07:35:02.338Z,1018.16
2023-05-14T07:36:01.502Z,1018.17
2023-05-14T07:37:01.249Z,1018.14
2023-05-14T07:38:02.471Z,1018.13
2023-05-14T07:39:03.900Z,1018.07
2023-05-14T07:40:01.034Z,1018.08
2023-05-14T07:41:01.031Z,1018.05
2023-05-14T07:42:01.021Z,1017.98
2023-05-14T07:43:01.261Z,1018.03
2023-05-14T07:44:01.454Z,1018.04
2023-05-14T07:45:01.069Z,1018
2023-05-14T07:46:01.141Z,1017.99
2023-05-14T07:47:01.182Z,1018
2023-05-14T07:48:01.305Z,1017.96
2023-05-14T07:49:01.108Z,1017.96
2023-05-14T07:50:00.843Z,1017.96
2023-05-14T07:51:01.416Z,1017.97
2023-05-14T07:52:02.569Z,1017.93
2023-05-14T07:53:02.290Z,1017.92
2023-05-14T07:54:01.329Z,1017.93
2023-05-14T07:55:02.269Z,1017.87
2023-05-14T07:56:01.012Z,1017.87
2023-05-14T07:57:01.067Z,1017.86
2023-05-14T07:58:01.041Z,1017.84
2023-05-14T07:59:01.158Z,1017.85
2023-05-14T08:00:01.107Z,1017.83
2023-05-14T08:01:01.505Z,1017.79
2023-05-14T08:02:01.188Z,1017.8
2023-05-14T08:03:01.357Z,1017.8
2023-05-14T08:04:01.920Z,1017.78
2023-05-14T08:05:01.097Z,1017.79
2023-05-14T08:06:01.016Z,1017.79
2023-05-14T08:07:01.117Z,1017.77
2023-05-14T08:08:01.144Z,1017.78
2023-05-14T08:09:01.117Z,1017.8
2023-05-14T08:10:00.824Z,1017.84
2023-05-14T08:11:01.447Z,1017.81
2023-05-14T08:12:01.048Z,1017.83
2023-05-14T08:13:01.049Z,1017.83
2023-05-14T08:14:01.073Z,1017.85
2023-05-14T08:15:01.062Z,1017.83
2023-05-14T08:16:01.112Z,1017.84
2023-05-14T08:17:01.058Z,1017.83
2023-05-14T08:18:01.155Z,1017.8
2023-05-14T08:19:01.182Z,1017.76
2023-05-14T08:20:01.097Z,1017.83
2023-05-14T08:21:03.243Z,1017.8
2023-05-14T08:22:01.349Z,1017.78
2023-05-14T08:23:02.667Z,1017.77
2023-05-14T08:24:02.563Z,1017.76
2023-05-14T08:25:01.553Z,1017.71
2023-05-14T08:26:02.038Z,1017.75
2023-05-14T08:27:01.077Z,1017.75
2023-05-14T08:28:01.042Z,1017.74
2023-05-14T08:29:01.062Z,1017.79
2023-05-14T08:30:01.081Z,1017.71
2023-05-14T08:31:01.743Z,1017.68
2023-05-14T08:32:05.947Z,1017.68
2023-05-14T08:33:01.340Z,1017.67
2023-05-14T08:34:02.465Z,1017.64
2023-05-14T08:35:02.466Z,1017.66
2023-05-14T08:36:02.420Z,1017.65
2023-05-14T08:37:01.113Z,1017.66
2023-05-14T08:38:01.121Z,1017.65
2023-05-14T08:39:01.156Z,1017.58
2023-05-14T08:40:01.549Z,1017.63
2023-05-14T08:41:01.152Z,1017.59
2023-05-14T08:42:01.037Z,1017.64
2023-05-14T08:43:01.053Z,1017.53
2023-05-14T08:44:01.031Z,1017.55
2023-05-14T08:45:01.028Z,1017.51
2023-05-14T08:46:01.772Z,1017.56
2023-05-14T08:47:01.472Z,1017.49
2023-05-14T08:48:01.261Z,1017.54
2023-05-14T08:49:02.134Z,1017.5
2023-05-14T08:50:04.618Z,1017.51
2023-05-14T08:51:03.912Z,1017.51
2023-05-14T08:52:01.692Z,1017.47
2023-05-14T08:53:01.104Z,1017.45
2023-05-14T08:54:01.176Z,1017.46
2023-05-14T08:55:01.180Z,1017.48
2023-05-14T08:56:06.744Z,1017.42
2023-05-14T08:57:01.147Z,1017.45
2023-05-14T08:58:01.781Z,1017.43
2023-05-14T08:59:01.031Z,1017.45
2023-05-14T09:00:01.058Z,1017.4
2023-05-14T09:01:10.555Z,1017.43
2023-05-14T09:02:01.614Z,1017.44
2023-05-14T09:03:01.490Z,1017.43
2023-05-14T09:04:02.086Z,1017.42
2023-05-14T09:05:01.143Z,1017.42
2023-05-14T09:06:13.786Z,1017.43
2023-05-14T09:07:01.836Z,1017.43
2023-05-14T09:08:01.731Z,1017.45
2023-05-14T09:09:01.411Z,1017.45
2023-05-14T09:10:02.551Z,1017.41
2023-05-14T09:11:16.281Z,1017.39
2023-05-14T09:12:01.141Z,1017.44
2023-05-14T09:13:01.040Z,1017.46
2023-05-14T09:14:01.036Z,1017.42
2023-05-14T09:15:01.049Z,1017.43
2023-05-14T09:16:01.054Z,1017.41
2023-05-14T09:17:01.026Z,1017.43
2023-05-14T09:18:01.120Z,1017.46
2023-05-14T09:19:01.214Z,1017.35
2023-05-14T09:20:01.085Z,1017.37
2023-05-14T09:21:01.080Z,1017.37
2023-05-14T09:22:01.404Z,1017.34
2023-05-14T09:23:01.122Z,1017.34
2023-05-14T09:24:01.114Z,1017.34
2023-05-14T09:25:01.197Z,1017.26
2023-05-14T09:26:01.087Z,1017.34
2023-05-14T09:27:01.423Z,1017.28
2023-05-14T09:28:01.143Z,1017.31
2023-05-14T09:29:00.833Z,1017.32
2023-05-14T09:30:00.430Z,1017.32
2023-05-14T09:31:00.061Z,1017.32
2023-05-14T09:31:59.692Z,1017.26
2023-05-14T09:33:02.116Z,1017.24
2023-05-14T09:34:01.725Z,1017.23
2023-05-14T09:35:01.119Z,1017.23
2023-05-14T09:36:01.077Z,1017.15
2023-05-14T09:37:01.023Z,1017.18
2023-05-14T09:38:01.089Z,1017.13
2023-05-14T09:39:01.108Z,1017.14
2023-05-14T09:40:01.110Z,1017.07
2023-05-14T09:41:01.097Z,1017.12
2023-05-14T09:42:01.644Z,1017.09
2023-05-14T09:43:01.230Z,1017.11
2023-05-14T09:44:01.171Z,1017.11
2023-05-14T09:45:01.505Z,1017.01
2023-05-14T09:46:01.154Z,1017.09
2023-05-14T09:47:01.086Z,1017.01
2023-05-14T09:48:01.496Z,1016.96
2023-05-14T09:49:00.845Z,1017.01
2023-05-14T09:50:00.391Z,1017.01
2023-05-14T09:51:00.035Z,1016.95
2023-05-14T09:51:59.686Z,1016.97
2023-05-14T09:53:01.756Z,1016.98
2023-05-14T09:54:01.398Z,1016.95
2023-05-14T09:55:02.109Z,1016.93
2023-05-14T09:56:02.131Z,1016.94
2023-05-14T09:57:01.039Z,1016.92
2023-05-14T09:58:01.120Z,1016.92
2023-05-14T09:59:01.259Z,1016.81
2023-05-14T10:00:01.250Z,1016.76
2023-05-14T10:01:02.753Z,1016.82
2023-05-14T10:02:01.853Z,1016.86
2023-05-14T10:03:01.052Z,1016.79
2023-05-14T10:04:01.094Z,1016.84
2023-05-14T10:05:01.112Z,1016.84
2023-05-14T10:06:01.487Z,1016.77
2023-05-14T10:07:00.753Z,1016.77
2023-05-14T10:08:00.765Z,1016.75
2023-05-14T10:09:00.748Z,1016.76
2023-05-14T10:10:00.769Z,1016.73
2023-05-14T10:11:00.510Z,1016.71
2023-05-14T10:12:00.180Z,1016.69
2023-05-14T10:12:59.866Z,1016.74
2023-05-14T10:13:59.479Z,1016.79
2023-05-14T10:15:02.134Z,1016.75
2023-05-14T10:16:04.717Z,1016.72
2023-05-14T10:17:01.278Z,1016.75
2023-05-14T10:18:01.156Z,1016.71
2023-05-14T10:19:01.510Z,1016.68
2023-05-14T10:20:01.434Z,1016.62
2023-05-14T10:21:01.180Z,1016.57
2023-05-14T10:22:01.251Z,1016.54
2023-05-14T10:23:01.071Z,1016.47
2023-05-14T10:24:01.010Z,1016.62
2023-05-14T10:25:01.016Z,1016.54
2023-05-14T10:26:01.059Z,1016.51
2023-05-14T10:27:01.011Z,1016.52
2023-05-14T10:28:01.026Z,1016.52
2023-05-14T10:29:00.598Z,1016.46
2023-05-14T10:30:00.408Z,1016.49
2023-05-14T10:31:01.737Z,1016.49
2023-05-14T10:32:03.011Z,1016.45
2023-05-14T10:33:01.713Z,1016.41
2023-05-14T10:34:02.712Z,1016.41
2023-05-14T10:35:02.056Z,1016.39
2023-05-14T10:36:01.652Z,1016.43
2023-05-14T10:37:03.981Z,1016.38
2023-05-14T10:38:01.028Z,1016.33
2023-05-14T10:39:01.448Z,1016.34
2023-05-14T10:40:01.084Z,1016.29
2023-05-14T10:41:01.099Z,1016.27
2023-05-14T10:42:08.727Z,1016.26
2023-05-14T10:43:01.090Z,1016.25
2023-05-14T10:44:01.029Z,1016.23
2023-05-14T10:45:01.040Z,1016.17
2023-05-14T10:46:01.118Z,1016.16
2023-05-14T10:47:11.533Z,1016.16
2023-05-14T10:48:01.171Z,1016.13
2023-05-14T10:49:00.935Z,1016.17
2023-05-14T10:50:01.045Z,1016.17
2023-05-14T10:51:01.060Z,1016.12
2023-05-14T10:52:14.533Z,1016.13
2023-05-14T10:53:01.034Z,1016.19
2023-05-14T10:54:01.102Z,1016.14
2023-05-14T10:55:03.468Z,1016.17
2023-05-14T10:56:01.484Z,1016.16
2023-05-14T10:57:01.200Z,1016.1
2023-05-14T10:58:01.095Z,1016.07
2023-05-14T10:59:01.116Z,1016.13
2023-05-14T11:00:01.090Z,1016.14
2023-05-14T11:01:01.952Z,1016.06
2023-05-14T11:02:01.146Z,1016.04
2023-05-14T11:03:01.190Z,1016.08
2023-05-14T11:04:01.882Z,1016.04
2023-05-14T11:05:02.156Z,1016.09
2023-05-14T11:06:01.037Z,1016.06
2023-05-14T11:07:01.046Z,1016.07
2023-05-14T11:08:01.035Z,1016.07
2023-05-14T11:09:00.744Z,1016.04
2023-05-14T11:10:00.342Z,1016.03
2023-05-14T11:10:59.948Z,1016.03
2023-05-14T11:11:59.712Z,1015.99
2023-05-14T11:13:01.737Z,1016.01
2023-05-14T11:14:02.153Z,1016.04
2023-05-14T11:15:01.341Z,1016.03
2023-05-14T11:16:08.765Z,1015.94
2023-05-14T11:17:01.473Z,1015.95
2023-05-14T11:18:01.159Z,1015.97
2023-05-14T11:19:01.193Z,1015.94
2023-05-14T11:20:01.031Z,1015.91
2023-05-14T11:21:01.083Z,1015.88
2023-05-14T11:22:01.078Z,1015.87
2023-05-14T11:23:01.037Z,1015.87
2023-05-14T11:24:01.083Z,1015.85
2023-05-14T11:25:01.321Z,1015.86
2023-05-14T11:26:02.012Z,1015.88
2023-05-14T11:27:01.101Z,1015.87
2023-05-14T11:28:01.095Z,1015.92
2023-05-14T11:29:00.843Z,1015.84
2023-05-14T11:30:00.500Z,1015.88
2023-05-14T11:31:00.210Z,1015.87
2023-05-14T11:31:59.853Z,1015.85
2023-05-14T11:33:02.495Z,1015.89
2023-05-14T11:34:01.229Z,1015.86
2023-05-14T11:35:01.337Z,1015.82
2023-05-14T11:36:01.944Z,1015.84
2023-05-14T11:37:01.906Z,1015.78
2023-05-14T11:38:01.261Z,1015.75
2023-05-14T11:39:00.640Z,1015.81
2023-05-14T11:40:00.351Z,1015.72
2023-05-14T11:41:00.044Z,1015.75
2023-05-14T11:41:59.867Z,1015.72
2023-05-14T11:43:01.591Z,1015.71
2023-05-14T11:44:01.884Z,1015.67
2023-05-14T11:45:01.245Z,1015.69
2023-05-14T11:46:01.210Z,1015.67
2023-05-14T11:47:01.118Z,1015.72
2023-05-14T11:48:01.124Z,1015.7
2023-05-14T11:49:00.987Z,1015.7
2023-05-14T11:50:01.514Z,1015.67
2023-05-14T11:51:01.020Z,1015.67
2023-05-14T11:52:01.034Z,1015.65
2023-05-14T11:53:01.044Z,1015.68
2023-05-14T11:54:01.056Z,1015.64
2023-05-14T11:55:01.056Z,1015.6
2023-05-14T11:56:01.445Z,1015.65
2023-05-14T11:57:01.181Z,1015.65
2023-05-14T11:58:01.080Z,1015.65
2023-05-14T11:59:01.157Z,1015.64
2023-05-14T12:00:01.143Z,1015.63
2023-05-14T12:01:03.358Z,1015.62
2023-05-14T12:02:02.554Z,1015.63
2023-05-14T12:03:01.096Z,1015.58
2023-05-14T12:04:01.615Z,1015.57
2023-05-14T12:05:01.457Z,1015.56
2023-05-14T12:06:01.236Z,1015.52
2023-05-14T12:07:01.131Z,1015.54